sensor_id;sensor_type;location;lat;lon;timestamp;temperature;humidity
1680;DHT22;838;51.794;12.258;2023-03-23T00:02:37;11.80;13.30
1680;DHT22;838;51.794;12.258;2023-03-23T00:05:05;11.80;13.80
1680;DHT22;838;51.794;12.258;2023-03-23T00:07:32;11.80;13.70
1680;DHT22;838;51.794;12.258;2023-03-23T00:09:59;11.70;13.90
1680;DHT22;838;51.794;12.258;2023-03-23T00:12:30;11.80;14.10
1680;DHT22;838;51.794;12.258;2023-03-23T00:15:08;11.90;13.60
1680;DHT22;838;51.794;12.258;2023-03-23T00:17:38;11.90;13.70
1680;DHT22;838;51.794;12.258;2023-03-23T00:20:06;11.80;13.70
1680;DHT22;838;51.794;12.258;2023-03-23T00:22:32;11.80;14.40
1680;DHT22;838;51.794;12.258;2023-03-23T00:25:03;11.80;14.30
1680;DHT22;838;51.794;12.258;2023-03-23T00:27:29;11.90;13.80
1680;DHT22;838;51.794;12.258;2023-03-23T00:29:55;11.80;13.90
1680;DHT22;838;51.794;12.258;2023-03-23T00:32:23;11.70;15.00
1680;DHT22;838;51.794;12.258;2023-03-23T00:34:56;11.80;15.40
1680;DHT22;838;51.794;12.258;2023-03-23T00:37:24;12.00;13.60
1680;DHT22;838;51.794;12.258;2023-03-23T00:39:50;12.10;13.30
1680;DHT22;838;51.794;12.258;2023-03-23T00:42:17;12.40;12.50
1680;DHT22;838;51.794;12.258;2023-03-23T00:44:43;12.70;10.50
1680;DHT22;838;51.794;12.258;2023-03-23T00:47:10;12.90;9.70
1680;DHT22;838;51.794;12.258;2023-03-23T00:49:37;13.00;8.70
1680;DHT22;838;51.794;12.258;2023-03-23T00:52:05;13.00;8.30
1680;DHT22;838;51.794;12.258;2023-03-23T00:54:32;13.00;8.60
1680;DHT22;838;51.794;12.258;2023-03-23T00:56:59;13.00;8.30
1680;DHT22;838;51.794;12.258;2023-03-23T00:59:24;13.20;7.90
1680;DHT22;838;51.794;12.258;2023-03-23T01:01:51;13.30;6.20
1680;DHT22;838;51.794;12.258;2023-03-23T01:04:17;13.40;6.50
1680;DHT22;838;51.794;12.258;2023-03-23T01:06:44;13.50;5.60
1680;DHT22;838;51.794;12.258;2023-03-23T01:09:12;13.70;5.30
1680;DHT22;838;51.794;12.258;2023-03-23T01:11:45;13.90;4.00
1680;DHT22;838;51.794;12.258;2023-03-23T01:14:14;14.20;3.00
1680;DHT22;838;51.794;12.258;2023-03-23T01:16:41;14.40;2.40
1680;DHT22;838;51.794;12.258;2023-03-23T01:19:07;14.40;2.30
1680;DHT22;838;51.794;12.258;2023-03-23T01:21:32;14.30;2.10
1680;DHT22;838;51.794;12.258;2023-03-23T01:23:58;14.10;2.40
1680;DHT22;838;51.794;12.258;2023-03-23T01:26:26;14.00;2.90
1680;DHT22;838;51.794;12.258;2023-03-23T01:28:52;14.00;2.70
1680;DHT22;838;51.794;12.258;2023-03-23T01:31:21;13.90;2.70
1680;DHT22;838;51.794;12.258;2023-03-23T01:33:48;13.90;2.80
1680;DHT22;838;51.794;12.258;2023-03-23T01:36:21;13.80;2.80
1680;DHT22;838;51.794;12.258;2023-03-23T01:38:49;13.90;2.20
1680;DHT22;838;51.794;12.258;2023-03-23T01:41:17;13.90;2.10
1680;DHT22;838;51.794;12.258;2023-03-23T01:46:29;14.00;1.50
1680;DHT22;838;51.794;12.258;2023-03-23T01:48:58;14.10;1.10
1680;DHT22;838;51.794;12.258;2023-03-23T01:51:26;14.20;1.00
1680;DHT22;838;51.794;12.258;2023-03-23T01:53:56;14.30;1.00
1680;DHT22;838;51.794;12.258;2023-03-23T01:56:25;14.30;1.00
1680;DHT22;838;51.794;12.258;2023-03-23T01:58:56;14.30;1.00
1680;DHT22;838;51.794;12.258;2023-03-23T02:01:22;14.20;1.00
1680;DHT22;838;51.794;12.258;2023-03-23T02:03:52;14.30;1.00
1680;DHT22;838;51.794;12.258;2023-03-23T02:06:19;14.30;1.00
1680;DHT22;838;51.794;12.258;2023-03-23T02:08:48;14.30;1.00
1680;DHT22;838;51.794;12.258;2023-03-23T02:11:17;14.30;1.00
1680;DHT22;838;51.794;12.258;2023-03-23T02:13:43;14.30;1.00
1680;DHT22;838;51.794;12.258;2023-03-23T02:16:25;14.30;1.00
1680;DHT22;838;51.794;12.258;2023-03-23T02:19:14;14.20;1.00
1680;DHT22;838;51.794;12.258;2023-03-23T02:33:20;14.30;1.00
1680;DHT22;838;51.794;12.258;2023-03-23T02:35:54;14.30;1.00
1680;DHT22;838;51.794;12.258;2023-03-23T02:38:35;14.40;1.00
1680;DHT22;838;51.794;12.258;2023-03-23T02:41:03;14.50;1.00
1680;DHT22;838;51.794;12.258;2023-03-23T02:43:38;14.60;1.00
1680;DHT22;838;51.794;12.258;2023-03-23T02:46:08;14.50;1.00
1680;DHT22;838;51.794;12.258;2023-03-23T02:48:36;14.70;1.00
1680;DHT22;838;51.794;12.258;2023-03-23T02:51:04;14.70;1.00
1680;DHT22;838;51.794;12.258;2023-03-23T02:53:33;14.70;1.00
1680;DHT22;838;51.794;12.258;2023-03-23T02:56:00;14.60;1.00
1680;DHT22;838;51.794;12.258;2023-03-23T02:58:28;14.60;1.00
1680;DHT22;838;51.794;12.258;2023-03-23T03:00:55;14.80;1.00
1680;DHT22;838;51.794;12.258;2023-03-23T03:03:24;14.70;1.00
1680;DHT22;838;51.794;12.258;2023-03-23T03:11:13;14.60;1.00
1680;DHT22;838;51.794;12.258;2023-03-23T03:16:43;14.60;1.00
1680;DHT22;838;51.794;12.258;2023-03-23T03:19:26;14.60;1.00
1680;DHT22;838;51.794;12.258;2023-03-23T03:21:54;14.80;1.00
1680;DHT22;838;51.794;12.258;2023-03-23T03:24:24;14.70;1.00
1680;DHT22;838;51.794;12.258;2023-03-23T03:26:53;14.50;1.00
1680;DHT22;838;51.794;12.258;2023-03-23T03:29:29;14.50;1.00
1680;DHT22;838;51.794;12.258;2023-03-23T03:31:56;14.50;1.00
1680;DHT22;838;51.794;12.258;2023-03-23T03:34:24;14.60;1.00
1680;DHT22;838;51.794;12.258;2023-03-23T03:36:52;14.50;1.00
1680;DHT22;838;51.794;12.258;2023-03-23T03:39:19;14.50;1.00
1680;DHT22;838;51.794;12.258;2023-03-23T03:41:46;14.50;1.00
1680;DHT22;838;51.794;12.258;2023-03-23T03:44:13;14.50;1.00
1680;DHT22;838;51.794;12.258;2023-03-23T03:46:39;14.50;1.00
1680;DHT22;838;51.794;12.258;2023-03-23T03:49:07;14.50;1.00
1680;DHT22;838;51.794;12.258;2023-03-23T03:51:34;14.40;1.00
1680;DHT22;838;51.794;12.258;2023-03-23T03:54:01;14.40;1.00
1680;DHT22;838;51.794;12.258;2023-03-23T03:56:26;14.20;1.00
1680;DHT22;838;51.794;12.258;2023-03-23T03:58:53;14.10;1.00
1680;DHT22;838;51.794;12.258;2023-03-23T04:01:21;14.10;1.00
1680;DHT22;838;51.794;12.258;2023-03-23T04:03:48;14.10;1.00
1680;DHT22;838;51.794;12.258;2023-03-23T04:06:15;14.10;1.00
1680;DHT22;838;51.794;12.258;2023-03-23T04:08:41;14.10;1.00
1680;DHT22;838;51.794;12.258;2023-03-23T04:11:09;14.10;1.00
1680;DHT22;838;51.794;12.258;2023-03-23T04:13:35;14.10;1.00
1680;DHT22;838;51.794;12.258;2023-03-23T04:16:01;14.20;1.00
1680;DHT22;838;51.794;12.258;2023-03-23T04:18:27;14.10;1.00
1680;DHT22;838;51.794;12.258;2023-03-23T04:20:54;14.20;1.00
1680;DHT22;838;51.794;12.258;2023-03-23T04:23:25;14.20;1.00
1680;DHT22;838;51.794;12.258;2023-03-23T04:25:52;14.30;1.00
1680;DHT22;838;51.794;12.258;2023-03-23T04:28:25;14.30;1.00
1680;DHT22;838;51.794;12.258;2023-03-23T04:30:53;14.40;1.00
1680;DHT22;838;51.794;12.258;2023-03-23T04:33:21;14.40;1.00
1680;DHT22;838;51.794;12.258;2023-03-23T04:35:47;14.40;1.00
1680;DHT22;838;51.794;12.258;2023-03-23T04:38:17;14.30;1.00
1680;DHT22;838;51.794;12.258;2023-03-23T04:40:46;14.40;1.00
1680;DHT22;838;51.794;12.258;2023-03-23T04:43:12;14.40;1.00
1680;DHT22;838;51.794;12.258;2023-03-23T04:45:38;14.30;1.00
1680;DHT22;838;51.794;12.258;2023-03-23T04:48:07;14.40;1.00
1680;DHT22;838;51.794;12.258;2023-03-23T04:50:34;14.50;1.00
1680;DHT22;838;51.794;12.258;2023-03-23T04:53:03;14.60;1.00
1680;DHT22;838;51.794;12.258;2023-03-23T04:55:31;14.60;1.00
1680;DHT22;838;51.794;12.258;2023-03-23T04:58:04;14.70;1.00
1680;DHT22;838;51.794;12.258;2023-03-23T05:00:34;14.60;1.00
1680;DHT22;838;51.794;12.258;2023-03-23T05:03:00;14.60;1.00
1680;DHT22;838;51.794;12.258;2023-03-23T05:05:27;14.60;1.00
1680;DHT22;838;51.794;12.258;2023-03-23T05:07:55;14.60;1.00
1680;DHT22;838;51.794;12.258;2023-03-23T05:10:21;14.70;1.00
1680;DHT22;838;51.794;12.258;2023-03-23T05:12:47;14.60;1.00
1680;DHT22;838;51.794;12.258;2023-03-23T05:15:14;14.70;1.00
1680;DHT22;838;51.794;12.258;2023-03-23T05:17:40;14.80;1.00
1680;DHT22;838;51.794;12.258;2023-03-23T05:20:11;14.70;1.00
1680;DHT22;838;51.794;12.258;2023-03-23T05:22:37;14.80;1.00
1680;DHT22;838;51.794;12.258;2023-03-23T05:25:07;14.90;1.00
1680;DHT22;838;51.794;12.258;2023-03-23T05:27:37;14.90;1.00
1680;DHT22;838;51.794;12.258;2023-03-23T05:30:04;15.10;1.00
1680;DHT22;838;51.794;12.258;2023-03-23T05:32:31;15.10;1.00
1680;DHT22;838;51.794;12.258;2023-03-23T05:34:58;15.00;1.00
1680;DHT22;838;51.794;12.258;2023-03-23T05:37:25;14.90;1.00
1680;DHT22;838;51.794;12.258;2023-03-23T05:39:52;14.80;1.00
1680;DHT22;838;51.794;12.258;2023-03-23T05:42:21;14.60;1.00
1680;DHT22;838;51.794;12.258;2023-03-23T05:44:47;14.40;1.00
1680;DHT22;838;51.794;12.258;2023-03-23T05:47:13;14.40;1.00
1680;DHT22;838;51.794;12.258;2023-03-23T05:49:39;14.30;1.70
1680;DHT22;838;51.794;12.258;2023-03-23T05:52:05;14.20;2.60
1680;DHT22;838;51.794;12.258;2023-03-23T05:54:30;14.00;3.70
1680;DHT22;838;51.794;12.258;2023-03-23T05:56:56;13.90;4.50
1680;DHT22;838;51.794;12.258;2023-03-23T05:59:22;13.80;6.10
1680;DHT22;838;51.794;12.258;2023-03-23T06:01:48;13.70;7.60
1680;DHT22;838;51.794;12.258;2023-03-23T06:04:13;13.60;8.40
1680;DHT22;838;51.794;12.258;2023-03-23T06:06:39;13.60;10.30
1680;DHT22;838;51.794;12.258;2023-03-23T06:09:07;13.60;10.60
1680;DHT22;838;51.794;12.258;2023-03-23T06:11:33;13.50;11.50
1680;DHT22;838;51.794;12.258;2023-03-23T06:13:59;13.60;12.60
1680;DHT22;838;51.794;12.258;2023-03-23T06:16:26;13.60;12.80
1680;DHT22;838;51.794;12.258;2023-03-23T06:18:52;13.60;13.90
1680;DHT22;838;51.794;12.258;2023-03-23T06:21:17;13.70;14.40
1680;DHT22;838;51.794;12.258;2023-03-23T06:23:47;13.70;14.80
1680;DHT22;838;51.794;12.258;2023-03-23T06:26:14;13.60;15.00
1680;DHT22;838;51.794;12.258;2023-03-23T06:28:42;13.50;16.80
1680;DHT22;838;51.794;12.258;2023-03-23T06:31:08;13.50;17.90
1680;DHT22;838;51.794;12.258;2023-03-23T06:33:35;13.40;19.40
1680;DHT22;838;51.794;12.258;2023-03-23T06:36:02;13.30;20.40
1680;DHT22;838;51.794;12.258;2023-03-23T06:38:28;13.20;22.30
1680;DHT22;838;51.794;12.258;2023-03-23T06:40:54;12.90;23.00
1680;DHT22;838;51.794;12.258;2023-03-23T06:43:21;13.10;25.00
1680;DHT22;838;51.794;12.258;2023-03-23T06:45:47;13.10;25.60
1680;DHT22;838;51.794;12.258;2023-03-23T06:48:13;12.90;26.70
1680;DHT22;838;51.794;12.258;2023-03-23T06:50:41;13.20;26.80
1680;DHT22;838;51.794;12.258;2023-03-23T06:53:07;13.20;26.70
1680;DHT22;838;51.794;12.258;2023-03-23T06:55:33;13.20;28.00
1680;DHT22;838;51.794;12.258;2023-03-23T06:57:59;13.10;28.90
1680;DHT22;838;51.794;12.258;2023-03-23T07:00:27;13.10;30.30
1680;DHT22;838;51.794;12.258;2023-03-23T07:02:52;13.10;32.00
1680;DHT22;838;51.794;12.258;2023-03-23T07:05:18;13.10;32.70
1680;DHT22;838;51.794;12.258;2023-03-23T07:07:45;13.10;33.00
1680;DHT22;838;51.794;12.258;2023-03-23T07:10:11;13.10;35.10
1680;DHT22;838;51.794;12.258;2023-03-23T07:12:37;13.10;35.70
1680;DHT22;838;51.794;12.258;2023-03-23T07:15:04;13.10;35.20
1680;DHT22;838;51.794;12.258;2023-03-23T07:17:30;13.20;34.80
1680;DHT22;838;51.794;12.258;2023-03-23T07:19:57;13.20;34.60
1680;DHT22;838;51.794;12.258;2023-03-23T07:22:22;13.30;35.10
1680;DHT22;838;51.794;12.258;2023-03-23T07:24:48;13.30;34.20
1680;DHT22;838;51.794;12.258;2023-03-23T07:27:14;13.20;34.30
1680;DHT22;838;51.794;12.258;2023-03-23T07:29:40;13.10;35.10
1680;DHT22;838;51.794;12.258;2023-03-23T07:32:08;13.00;34.80
1680;DHT22;838;51.794;12.258;2023-03-23T07:34:36;13.00;32.90
1680;DHT22;838;51.794;12.258;2023-03-23T07:37:02;12.90;33.80
1680;DHT22;838;51.794;12.258;2023-03-23T07:39:28;12.90;35.10
1680;DHT22;838;51.794;12.258;2023-03-23T07:41:54;12.90;34.60
1680;DHT22;838;51.794;12.258;2023-03-23T07:44:20;12.90;35.10
1680;DHT22;838;51.794;12.258;2023-03-23T07:46:46;12.90;34.50
1680;DHT22;838;51.794;12.258;2023-03-23T07:49:12;12.90;34.00
1680;DHT22;838;51.794;12.258;2023-03-23T07:51:38;12.90;33.30
1680;DHT22;838;51.794;12.258;2023-03-23T07:54:05;12.90;32.10
1680;DHT22;838;51.794;12.258;2023-03-23T07:56:33;13.00;33.00
1680;DHT22;838;51.794;12.258;2023-03-23T07:58:59;13.00;31.30
1680;DHT22;838;51.794;12.258;2023-03-23T08:01:26;13.00;30.30
1680;DHT22;838;51.794;12.258;2023-03-23T08:03:52;13.10;30.50
1680;DHT22;838;51.794;12.258;2023-03-23T08:06:20;13.20;30.10
1680;DHT22;838;51.794;12.258;2023-03-23T08:08:46;13.20;28.60
1680;DHT22;838;51.794;12.258;2023-03-23T08:11:12;13.20;28.60
1680;DHT22;838;51.794;12.258;2023-03-23T08:13:41;13.30;28.00
1680;DHT22;838;51.794;12.258;2023-03-23T08:16:08;13.40;28.60
1680;DHT22;838;51.794;12.258;2023-03-23T08:18:35;13.40;28.00
1680;DHT22;838;51.794;12.258;2023-03-23T08:21:02;13.50;27.60
1680;DHT22;838;51.794;12.258;2023-03-23T08:23:30;13.60;27.00
1680;DHT22;838;51.794;12.258;2023-03-23T08:25:56;13.70;26.00
1680;DHT22;838;51.794;12.258;2023-03-23T08:28:22;13.80;25.90
1680;DHT22;838;51.794;12.258;2023-03-23T08:30:48;13.80;25.40
1680;DHT22;838;51.794;12.258;2023-03-23T08:33:15;13.80;25.20
1680;DHT22;838;51.794;12.258;2023-03-23T08:35:41;14.00;24.10
1680;DHT22;838;51.794;12.258;2023-03-23T08:38:08;14.20;24.00
1680;DHT22;838;51.794;12.258;2023-03-23T08:40:34;14.40;22.60
1680;DHT22;838;51.794;12.258;2023-03-23T08:43:00;14.70;22.00
1680;DHT22;838;51.794;12.258;2023-03-23T08:45:25;14.70;20.20
1680;DHT22;838;51.794;12.258;2023-03-23T08:47:52;14.70;20.40
1680;DHT22;838;51.794;12.258;2023-03-23T08:50:24;14.80;20.30
1680;DHT22;838;51.794;12.258;2023-03-23T08:52:52;14.80;20.70
1680;DHT22;838;51.794;12.258;2023-03-23T08:55:18;14.80;20.10
1680;DHT22;838;51.794;12.258;2023-03-23T08:57:44;14.90;20.30
1680;DHT22;838;51.794;12.258;2023-03-23T09:00:14;14.90;19.30
1680;DHT22;838;51.794;12.258;2023-03-23T09:02:48;15.00;18.60
1680;DHT22;838;51.794;12.258;2023-03-23T09:05:16;15.20;18.80
1680;DHT22;838;51.794;12.258;2023-03-23T09:07:45;15.10;17.90
1680;DHT22;838;51.794;12.258;2023-03-23T09:10:12;15.10;17.90
1680;DHT22;838;51.794;12.258;2023-03-23T09:12:39;15.10;18.10
1680;DHT22;838;51.794;12.258;2023-03-23T09:15:07;15.20;17.90
1680;DHT22;838;51.794;12.258;2023-03-23T09:17:53;15.20;17.10
1680;DHT22;838;51.794;12.258;2023-03-23T09:20:22;15.20;17.10
1680;DHT22;838;51.794;12.258;2023-03-23T09:22:50;15.30;16.80
1680;DHT22;838;51.794;12.258;2023-03-23T09:25:18;15.10;16.20
1680;DHT22;838;51.794;12.258;2023-03-23T09:27:53;15.10;16.20
1680;DHT22;838;51.794;12.258;2023-03-23T09:30:23;15.10;17.10
1680;DHT22;838;51.794;12.258;2023-03-23T09:32:50;15.10;16.30
1680;DHT22;838;51.794;12.258;2023-03-23T09:35:16;15.10;16.40
1680;DHT22;838;51.794;12.258;2023-03-23T09:37:44;15.10;17.10
1680;DHT22;838;51.794;12.258;2023-03-23T09:51:36;15.20;16.60
1680;DHT22;838;51.794;12.258;2023-03-23T09:54:29;15.30;16.30
1680;DHT22;838;51.794;12.258;2023-03-23T09:56:58;15.10;16.10
1680;DHT22;838;51.794;12.258;2023-03-23T09:59:29;15.40;16.30
1680;DHT22;838;51.794;12.258;2023-03-23T10:02:11;15.60;15.10
1680;DHT22;838;51.794;12.258;2023-03-23T10:04:46;15.80;14.20
1680;DHT22;838;51.794;12.258;2023-03-23T10:07:17;15.90;13.80
1680;DHT22;838;51.794;12.258;2023-03-23T10:09:49;16.10;12.70
1680;DHT22;838;51.794;12.258;2023-03-23T10:15:16;16.00;12.60
1680;DHT22;838;51.794;12.258;2023-03-23T10:27:01;15.80;12.00
1680;DHT22;838;51.794;12.258;2023-03-23T10:29:08;15.90;11.90
1680;DHT22;838;51.794;12.258;2023-03-23T10:31:42;16.00;12.10
1680;DHT22;838;51.794;12.258;2023-03-23T10:34:20;16.10;11.00
1680;DHT22;838;51.794;12.258;2023-03-23T10:37:00;16.10;10.70
1680;DHT22;838;51.794;12.258;2023-03-23T10:39:31;16.10;10.20
1680;DHT22;838;51.794;12.258;2023-03-23T10:42:00;16.10;10.40
1680;DHT22;838;51.794;12.258;2023-03-23T10:44:33;16.20;9.70
1680;DHT22;838;51.794;12.258;2023-03-23T10:47:07;16.20;9.10
1680;DHT22;838;51.794;12.258;2023-03-23T10:54:36;15.90;8.70
1680;DHT22;838;51.794;12.258;2023-03-23T10:57:13;15.90;9.40
1680;DHT22;838;51.794;12.258;2023-03-23T10:59:45;16.00;9.00
1680;DHT22;838;51.794;12.258;2023-03-23T11:02:17;16.10;8.80
1680;DHT22;838;51.794;12.258;2023-03-23T11:04:55;16.10;8.60
1680;DHT22;838;51.794;12.258;2023-03-23T11:07:29;16.30;8.50
1680;DHT22;838;51.794;12.258;2023-03-23T11:09:57;16.60;8.00
1680;DHT22;838;51.794;12.258;2023-03-23T11:12:24;16.70;6.90
1680;DHT22;838;51.794;12.258;2023-03-23T11:14:51;16.80;7.20
1680;DHT22;838;51.794;12.258;2023-03-23T11:17:27;17.00;6.50
1680;DHT22;838;51.794;12.258;2023-03-23T11:19:53;17.00;6.10
1680;DHT22;838;51.794;12.258;2023-03-23T11:22:26;17.00;5.90
1680;DHT22;838;51.794;12.258;2023-03-23T11:24:55;16.90;6.00
1680;DHT22;838;51.794;12.258;2023-03-23T11:27:23;16.80;5.50
1680;DHT22;838;51.794;12.258;2023-03-23T11:29:55;16.70;5.20
1680;DHT22;838;51.794;12.258;2023-03-23T11:32:26;16.60;4.40
1680;DHT22;838;51.794;12.258;2023-03-23T11:34:56;16.70;4.80
1680;DHT22;838;51.794;12.258;2023-03-23T11:37:58;16.70;4.50
1680;DHT22;838;51.794;12.258;2023-03-23T11:40:27;16.60;3.20
1680;DHT22;838;51.794;12.258;2023-03-23T11:45:30;16.90;2.90
1680;DHT22;838;51.794;12.258;2023-03-23T11:48:00;17.00;2.80
1680;DHT22;838;51.794;12.258;2023-03-23T11:53:22;17.20;2.00
1680;DHT22;838;51.794;12.258;2023-03-23T11:58:28;17.20;1.50
1680;DHT22;838;51.794;12.258;2023-03-23T12:04:03;17.30;2.00
1680;DHT22;838;51.794;12.258;2023-03-23T12:09:58;17.50;1.60
1680;DHT22;838;51.794;12.258;2023-03-23T12:15:34;17.50;1.30
1680;DHT22;838;51.794;12.258;2023-03-23T12:24:00;17.50;1.00
1680;DHT22;838;51.794;12.258;2023-03-23T12:26:39;17.60;1.00
1680;DHT22;838;51.794;12.258;2023-03-23T12:29:35;17.50;1.00
1680;DHT22;838;51.794;12.258;2023-03-23T12:35:01;17.70;1.00
1680;DHT22;838;51.794;12.258;2023-03-23T12:37:53;18.00;1.00
1680;DHT22;838;51.794;12.258;2023-03-23T12:49:13;17.80;1.00
1680;DHT22;838;51.794;12.258;2023-03-23T12:51:47;18.00;1.00
1680;DHT22;838;51.794;12.258;2023-03-23T12:54:36;17.90;1.00
1680;DHT22;838;51.794;12.258;2023-03-23T12:57:17;17.90;1.00
1680;DHT22;838;51.794;12.258;2023-03-23T12:59:56;17.80;1.00
1680;DHT22;838;51.794;12.258;2023-03-23T13:02:33;17.80;1.00
1680;DHT22;838;51.794;12.258;2023-03-23T13:05:05;17.80;1.00
1680;DHT22;838;51.794;12.258;2023-03-23T13:07:37;17.70;1.00
1680;DHT22;838;51.794;12.258;2023-03-23T13:10:35;17.70;1.00
1680;DHT22;838;51.794;12.258;2023-03-23T13:13:04;17.50;1.00
1680;DHT22;838;51.794;12.258;2023-03-23T13:16:00;17.60;1.00
1680;DHT22;838;51.794;12.258;2023-03-23T13:18:35;17.60;1.00
1680;DHT22;838;51.794;12.258;2023-03-23T13:26:26;17.80;1.00
1680;DHT22;838;51.794;12.258;2023-03-23T13:29:22;17.80;1.00
1680;DHT22;838;51.794;12.258;2023-03-23T13:32:11;17.70;1.00
1680;DHT22;838;51.794;12.258;2023-03-23T13:34:39;17.50;1.00
1680;DHT22;838;51.794;12.258;2023-03-23T13:37:20;17.40;1.00
1680;DHT22;838;51.794;12.258;2023-03-23T13:50:11;17.20;1.00
1680;DHT22;838;51.794;12.258;2023-03-23T14:00:44;17.40;1.00
1680;DHT22;838;51.794;12.258;2023-03-23T14:03:38;17.90;1.00
1680;DHT22;838;51.794;12.258;2023-03-23T14:06:19;17.90;1.00
1680;DHT22;838;51.794;12.258;2023-03-23T14:08:49;17.60;1.00
1680;DHT22;838;51.794;12.258;2023-03-23T14:14:00;17.30;1.00
1680;DHT22;838;51.794;12.258;2023-03-23T14:16:50;17.30;1.00
1680;DHT22;838;51.794;12.258;2023-03-23T14:19:23;17.40;1.00
1680;DHT22;838;51.794;12.258;2023-03-23T14:21:54;17.40;1.00
1680;DHT22;838;51.794;12.258;2023-03-23T14:24:33;17.50;1.00
1680;DHT22;838;51.794;12.258;2023-03-23T14:27:15;17.60;1.00
1680;DHT22;838;51.794;12.258;2023-03-23T14:29:42;17.70;1.00
1680;DHT22;838;51.794;12.258;2023-03-23T14:32:17;17.60;1.00
1680;DHT22;838;51.794;12.258;2023-03-23T14:34:47;17.80;1.00
1680;DHT22;838;51.794;12.258;2023-03-23T14:37:15;18.00;1.00
1680;DHT22;838;51.794;12.258;2023-03-23T14:39:45;18.10;1.00
1680;DHT22;838;51.794;12.258;2023-03-23T14:42:14;18.10;1.00
1680;DHT22;838;51.794;12.258;2023-03-23T14:44:50;18.00;1.00
1680;DHT22;838;51.794;12.258;2023-03-23T14:49:45;17.90;1.00
1680;DHT22;838;51.794;12.258;2023-03-23T14:52:13;17.80;1.00
1680;DHT22;838;51.794;12.258;2023-03-23T14:54:40;17.70;1.00
1680;DHT22;838;51.794;12.258;2023-03-23T14:59:51;17.60;1.00
1680;DHT22;838;51.794;12.258;2023-03-23T15:02:37;17.70;1.00
1680;DHT22;838;51.794;12.258;2023-03-23T15:07:40;17.90;1.00
1680;DHT22;838;51.794;12.258;2023-03-23T15:10:08;18.00;1.00
1680;DHT22;838;51.794;12.258;2023-03-23T15:12:37;18.00;1.00
1680;DHT22;838;51.794;12.258;2023-03-23T15:15:05;18.10;1.00
1680;DHT22;838;51.794;12.258;2023-03-23T15:17:37;18.10;1.00
1680;DHT22;838;51.794;12.258;2023-03-23T15:21:07;18.20;1.00
1680;DHT22;838;51.794;12.258;2023-03-23T15:23:16;18.20;1.00
1680;DHT22;838;51.794;12.258;2023-03-23T15:25:51;17.90;1.00
1680;DHT22;838;51.794;12.258;2023-03-23T15:28:20;17.90;1.00
1680;DHT22;838;51.794;12.258;2023-03-23T15:30:50;17.70;1.00
1680;DHT22;838;51.794;12.258;2023-03-23T15:33:16;17.60;1.00
1680;DHT22;838;51.794;12.258;2023-03-23T15:35:50;17.40;1.00
1680;DHT22;838;51.794;12.258;2023-03-23T15:38:30;17.40;1.00
1680;DHT22;838;51.794;12.258;2023-03-23T15:40:59;17.20;1.00
1680;DHT22;838;51.794;12.258;2023-03-23T15:43:28;17.20;1.00
1680;DHT22;838;51.794;12.258;2023-03-23T15:48:50;17.20;1.00
1680;DHT22;838;51.794;12.258;2023-03-23T15:51:18;17.20;1.00
1680;DHT22;838;51.794;12.258;2023-03-23T15:53:45;17.00;1.00
1680;DHT22;838;51.794;12.258;2023-03-23T15:56:13;17.20;1.00
1680;DHT22;838;51.794;12.258;2023-03-23T15:58:39;17.00;1.00
1680;DHT22;838;51.794;12.258;2023-03-23T16:01:11;17.00;1.00
1680;DHT22;838;51.794;12.258;2023-03-23T16:03:48;17.00;1.00
1680;DHT22;838;51.794;12.258;2023-03-23T16:06:16;17.20;1.00
1680;DHT22;838;51.794;12.258;2023-03-23T16:08:42;17.10;1.00
1680;DHT22;838;51.794;12.258;2023-03-23T16:11:13;17.10;1.00
1680;DHT22;838;51.794;12.258;2023-03-23T16:13:39;17.10;1.00
1680;DHT22;838;51.794;12.258;2023-03-23T16:16:30;17.10;1.00
1680;DHT22;838;51.794;12.258;2023-03-23T16:18:53;17.00;1.00
1680;DHT22;838;51.794;12.258;2023-03-23T16:21:19;16.90;1.00
1680;DHT22;838;51.794;12.258;2023-03-23T16:23:45;16.70;1.00
1680;DHT22;838;51.794;12.258;2023-03-23T16:26:12;16.60;1.00
1680;DHT22;838;51.794;12.258;2023-03-23T16:28:39;16.50;1.00
1680;DHT22;838;51.794;12.258;2023-03-23T16:31:05;16.50;1.00
1680;DHT22;838;51.794;12.258;2023-03-23T16:33:31;16.50;1.00
1680;DHT22;838;51.794;12.258;2023-03-23T16:35:57;16.50;1.00
1680;DHT22;838;51.794;12.258;2023-03-23T16:38:23;16.30;1.30
1680;DHT22;838;51.794;12.258;2023-03-23T16:40:49;16.20;1.90
1680;DHT22;838;51.794;12.258;2023-03-23T16:43:15;16.10;2.50
1680;DHT22;838;51.794;12.258;2023-03-23T16:45:43;15.90;2.80
1680;DHT22;838;51.794;12.258;2023-03-23T16:48:10;15.80;3.00
1680;DHT22;838;51.794;12.258;2023-03-23T16:50:37;15.80;3.00
1680;DHT22;838;51.794;12.258;2023-03-23T16:53:04;15.80;3.20
1680;DHT22;838;51.794;12.258;2023-03-23T16:55:32;15.80;3.30
1680;DHT22;838;51.794;12.258;2023-03-23T16:57:58;15.80;3.30
1680;DHT22;838;51.794;12.258;2023-03-23T17:00:24;15.90;2.90
1680;DHT22;838;51.794;12.258;2023-03-23T17:02:52;15.90;3.20
1680;DHT22;838;51.794;12.258;2023-03-23T17:05:22;15.80;3.30
1680;DHT22;838;51.794;12.258;2023-03-23T17:07:49;15.80;3.30
1680;DHT22;838;51.794;12.258;2023-03-23T17:10:18;15.90;3.30
1680;DHT22;838;51.794;12.258;2023-03-23T17:12:47;15.90;3.10
1680;DHT22;838;51.794;12.258;2023-03-23T17:15:13;15.90;3.30
1680;DHT22;838;51.794;12.258;2023-03-23T17:17:39;15.80;3.60
1680;DHT22;838;51.794;12.258;2023-03-23T17:20:09;15.80;3.60
1680;DHT22;838;51.794;12.258;2023-03-23T17:22:36;15.80;3.60
1680;DHT22;838;51.794;12.258;2023-03-23T17:25:02;15.80;3.60
1680;DHT22;838;51.794;12.258;2023-03-23T17:27:28;15.80;3.80
1680;DHT22;838;51.794;12.258;2023-03-23T17:29:55;15.80;3.80
1680;DHT22;838;51.794;12.258;2023-03-23T17:32:21;15.80;3.40
1680;DHT22;838;51.794;12.258;2023-03-23T17:34:49;15.80;3.90
1680;DHT22;838;51.794;12.258;2023-03-23T17:37:14;15.80;4.00
1680;DHT22;838;51.794;12.258;2023-03-23T17:39:41;15.70;3.70
1680;DHT22;838;51.794;12.258;2023-03-23T17:42:06;15.70;4.10
1680;DHT22;838;51.794;12.258;2023-03-23T17:44:32;15.40;3.90
1680;DHT22;838;51.794;12.258;2023-03-23T17:46:58;15.80;4.10
1680;DHT22;838;51.794;12.258;2023-03-23T17:49:25;15.70;3.90
1680;DHT22;838;51.794;12.258;2023-03-23T17:51:51;15.60;3.90
1680;DHT22;838;51.794;12.258;2023-03-23T17:54:17;15.60;3.80
1680;DHT22;838;51.794;12.258;2023-03-23T17:56:43;15.70;3.80
1680;DHT22;838;51.794;12.258;2023-03-23T17:59:10;15.60;3.50
1680;DHT22;838;51.794;12.258;2023-03-23T18:01:35;15.50;3.70
1680;DHT22;838;51.794;12.258;2023-03-23T18:04:01;15.60;3.90
1680;DHT22;838;51.794;12.258;2023-03-23T18:06:29;15.60;3.60
1680;DHT22;838;51.794;12.258;2023-03-23T18:08:55;15.60;3.50
1680;DHT22;838;51.794;12.258;2023-03-23T18:11:21;15.50;3.60
1680;DHT22;838;51.794;12.258;2023-03-23T18:13:46;15.50;3.90
1680;DHT22;838;51.794;12.258;2023-03-23T18:16:12;15.50;3.70
1680;DHT22;838;51.794;12.258;2023-03-23T18:18:38;15.50;3.80
1680;DHT22;838;51.794;12.258;2023-03-23T18:21:06;15.40;3.80
1680;DHT22;838;51.794;12.258;2023-03-23T18:23:33;15.30;3.80
1680;DHT22;838;51.794;12.258;2023-03-23T18:26:05;15.30;4.10
1680;DHT22;838;51.794;12.258;2023-03-23T18:28:32;15.20;4.40
1680;DHT22;838;51.794;12.258;2023-03-23T18:31:03;15.10;4.80